Flight Track Log - Related Links

Times and Time Zones

All times are in EDT time to prevent confusion due to time zone crossing. See the RPA4886 flight status page for this flight to view local times or setup timezone preferences in your user account.

Time Position Orientation Groundspeed Altitude Reporting Facility
EDT Latitude Longitude Course Direction KTS MPH feet Rate Location/Type
Tue 06:04:12 PM 38.9667 -77.5333 North 213 245 2,100  Level Potomac TRACON
Tue 06:05:12 PM 39.0000 -77.6000 303° West 256 295 4,200 1,744 Climbing Potomac TRACON
Tue 06:06:00 PM 39.2265 -77.4500 North  Level FlightAware Approximate
Tue 06:06:09 PM 39.0456 -77.6656 312° West 283 326 5,500  Level Washington Center
Tue 06:07:00 PM 39.3242 -77.4500 North  Level FlightAware Approximate
Tue 06:07:09 PM 39.1114 -77.7208 327° Northwest 265 305 6,900  Level Washington Center
Tue 06:08:00 PM 39.4220 -77.4500 North  Level FlightAware Approximate
Tue 06:08:10 PM 39.1603 -77.6581 45° Northeast 198 228 8,900  Level Washington Center
Tue 06:09:00 PM 39.5197 -77.4500 North  Level FlightAware Approximate
Tue 06:09:11 PM 39.2319 -77.6228 21° North 229 264 10,600  Level Washington Center
Tue 06:10:09 PM 39.3117 -77.5900 18° North 270 311 12,000 1,462 Climbing Washington Center
Tue 06:11:10 PM 39.3933 -77.5572 17° North 292 336 13,500 1,488 Climbing Washington Center
Tue 06:12:10 PM 39.4753 -77.5247 17° North 302 348 15,000 814 Climbing Washington Center
Tue 06:13:08 PM 39.5633 -77.4867 18° North 308 354 15,100 302 Climbing Washington Center
Tue 06:14:29 PM 39.6803 -77.4531 12° North 329 379 15,700 718 Climbing New York Center
Tue 06:15:30 PM 39.7867 -77.4522 360° North 335 386 16,800 1,000 Climbing New York Center
Tue 06:16:29 PM 39.8703 -77.4494 North 330 380 17,700 605 Climbing New York Center
Tue 06:17:29 PM 39.9553 -77.3844 30° Northeast 312 359 18,000 150 Climbing New York Center
Tue 06:18:29 PM 40.0297 -77.3208 33° Northeast 337 388 18,000 496 Level New York Center
Tue 06:19:30 PM 40.1192 -77.2478 32° Northeast 343 395 19,000 942 Climbing New York Center
Tue 06:20:30 PM 40.1978 -77.1819 33° Northeast 338 389 19,900 942 Climbing New York Center
Tue 06:21:31 PM 40.2742 -77.1181 33° Northeast 338 389 20,900 966 Climbing New York Center
Tue 06:22:28 PM 40.3525 -77.0572 31° Northeast 333 383 21,800 864 Climbing New York Center
Tue 06:23:29 PM 40.4267 -76.9958 32° Northeast 333 383 22,600 585 Climbing New York Center
Tue 06:24:31 PM 40.5125 -76.9517 21° North 328 377 23,000 197 Climbing New York Center
Tue 06:25:31 PM 40.6042 -76.9106 19° North 328 377 23,000  Level New York Center
Tue 06:26:29 PM 40.6983 -76.8644 20° North 341 392 23,000  Level New York Center
Tue 06:27:29 PM 40.7944 -76.8181 20° North 352 405 23,000  Level New York Center
Tue 06:28:30 PM 40.8883 -76.7714 21° North 357 411 23,000  Level New York Center
Tue 06:29:30 PM 40.9825 -76.7247 21° North 357 411 23,000  Level New York Center
Tue 06:30:28 PM 41.0764 -76.6806 20° North 357 411 23,000  Level New York Center
Tue 06:31:29 PM 41.1725 -76.6339 20° North 357 411 23,000  Level New York Center
Tue 06:32:30 PM 41.2664 -76.5897 19° North 357 411 23,000  Level New York Center
Tue 06:33:31 PM 41.3625 -76.5425 20° North 357 411 23,000  Level New York Center
Tue 06:34:31 PM 41.4372 -76.5047 21° North 357 411 23,000  Level New York Center
Tue 06:35:29 PM 41.5397 -76.4525 21° North 357 411 23,000  Level New York Center
Tue 06:36:29 PM 41.6314 -76.4047 21° North 357 411 23,000  Level New York Center
Tue 06:37:30 PM 41.7256 -76.3517 23° Northeast 357 411 23,000  Level New York Center
Tue 06:39:51 PM 41.9369 -76.2222 24° Northeast 355 409 23,000  Level Boston Center
Tue 06:40:51 PM 42.0319 -76.1886 15° North 355 409 23,000  Level Boston Center
Tue 06:41:51 PM 42.1272 -76.1494 17° North 355 409 23,000  Level Boston Center
Tue 06:42:51 PM 42.1906 -76.0553 48° Northeast 332 382 23,000  Level Boston Center
Tue 06:44:03 PM 42.2367 -75.9119 66° East 325 374 23,000  Level Boston Center
Tue 06:45:03 PM 42.2778 -75.7964 64° Northeast 331 381 23,000  Level Boston Center
Tue 06:46:03 PM 42.3167 -75.6806 66° East 331 381 23,000 -500 Level Boston Center
Tue 06:47:03 PM 42.3594 -75.5619 64° Northeast 336 387 22,000 -1,250 Descending Boston Center
Tue 06:48:03 PM 42.4022 -75.4431 64° Northeast 336 387 20,500 -1,500 Descending Boston Center
Tue 06:49:03 PM 42.4472 -75.3214 63° Northeast 342 394 19,000 -1,450 Descending Boston Center
Tue 06:50:03 PM 42.4856 -75.2078 65° Northeast 342 394 17,600 -1,450 Descending Boston Center
Tue 06:51:03 PM 42.5281 -75.0856 65° Northeast 342 394 16,100 -1,500 Descending Boston Center
Tue 06:52:03 PM 42.5722 -74.9747 62° Northeast 337 388 14,600 -1,500 Descending Boston Center
Tue 06:53:03 PM 42.6142 -74.8664 62° Northeast 332 382 13,100 -1,500 Descending Boston Center
Tue 06:54:03 PM 42.6539 -74.7550 64° Northeast 325 374 11,600 -1,050 Descending Boston Center
Tue 06:55:03 PM 42.6958 -74.6408 63° Northeast 317 365 11,000 -300 Descending Boston Center
Tue 06:56:03 PM 42.7311 -74.5458 63° Northeast 312 359 11,000 -450 Level Boston Center
Tue 06:57:03 PM 42.7708 -74.4256 66° East 317 365 10,100 -1,000 Descending Boston Center
Tue 06:58:03 PM 42.7869 -74.3356 76° East 286 329 9,000 -1,400 Descending Boston Center
Tue 06:59:03 PM 42.8092 -74.2372 73° East 253 291 7,300 -1,680 Descending Boston Center
Tue 06:59:18 PM 42.8139 -74.2147 74° East 251 289 6,900 -1,700 Descending Boston Center
Tue 07:00:03 PM 42.8272 -74.1528 74° East 248 285 5,600 -1,770 Descending Boston Center
Tue 07:00:19 PM 42.8339 -74.1275 70° East 245 282 5,100 -1,816 Descending Boston Center
Tue 07:01:19 PM 42.8456 -74.0400 80° East 235 270 3,300 -1,212 Descending Boston Center
Tue 07:02:03 PM 42.8528 -73.9781 81° East 237 273 3,000 -590 Descending Boston Center
Tue 07:02:20 PM 42.8508 -73.9525 96° East 233 268 2,700 -1,077 Descending Boston Center
Tue 07:03:21 PM 42.8542 -73.8619 87° East 235 270 1,600 -694 Descending Boston Center
Tue 07:04:21 PM 42.8153 -73.8100 136° Southeast 190 219 1,300 -300 Descending Boston Center

Login

Don't have an account? Register now (free) for customized features, flight alerts, and more!